TimeCST,TemperatureF,Dew PointF,Humidity,Sea Level PressureIn,VisibilityMPH,Wind Direction,Wind SpeedMPH,Gust SpeedMPH,PrecipitationIn,Events,Conditions,WindDirDegrees,DateUTC
12:15 AM,37.4,10.4,33,30.31,10.0,WSW,5.8,-,N/A,,Clear,240,2012-12-21 06:15:00
12:35 AM,37.4,10.4,33,30.31,10.0,WSW,8.1,-,N/A,,Clear,250,2012-12-21 06:35:00
12:55 AM,37.4,8.6,30,30.31,10.0,West,9.2,-,N/A,,Clear,260,2012-12-21 06:55:00
1:15 AM,37.4,10.4,33,30.31,10.0,West,10.4,-,N/A,,Clear,270,2012-12-21 07:15:00
1:35 AM,37.4,10.4,33,30.31,10.0,West,10.4,-,N/A,,Clear,270,2012-12-21 07:35:00
1:55 AM,37.4,10.4,33,30.31,10.0,West,11.5,-,N/A,,Clear,280,2012-12-21 07:55:00
2:15 AM,39.2,8.6,28,30.31,10.0,WNW,12.7,-,N/A,,Clear,290,2012-12-21 08:15:00
2:35 AM,39.2,8.6,28,30.31,10.0,WNW,11.5,-,N/A,,Clear,300,2012-12-21 08:35:00
2:55 AM,39.2,8.6,28,30.31,10.0,WNW,10.4,-,N/A,,Clear,300,2012-12-21 08:55:00
3:15 AM,39.2,6.8,26,30.31,10.0,WNW,10.4,16.1,N/A,,Clear,300,2012-12-21 09:15:00
3:35 AM,41.0,6.8,24,30.31,10.0,WNW,11.5,-,N/A,,Clear,300,2012-12-21 09:35:00
3:55 AM,39.2,6.8,26,30.31,10.0,WNW,12.7,-,N/A,,Clear,290,2012-12-21 09:55:00
4:15 AM,41.0,6.8,24,30.31,10.0,NW,12.7,23.0,N/A,,Clear,310,2012-12-21 10:15:00
4:35 AM,41.0,5.0,23,30.30,10.0,WNW,13.8,20.7,N/A,,Clear,300,2012-12-21 10:35:00
4:55 AM,41.0,6.8,24,30.30,10.0,East,3.5,-,N/A,,Clear,100,2012-12-21 10:55:00
5:15 AM,41.0,8.6,26,30.30,10.0,North,5.8,18.4,N/A,,Clear,350,2012-12-21 11:15:00
5:35 AM,42.8,6.8,23,30.30,10.0,WNW,9.2,12.7,N/A,,Clear,290,2012-12-21 11:35:00
5:55 AM,41.0,8.6,26,30.32,10.0,WNW,8.1,-,N/A,,Clear,290,2012-12-21 11:55:00
6:15 AM,35.6,10.4,35,30.33,10.0,Calm,Calm,-,N/A,,Clear,0,2012-12-21 12:15:00
6:35 AM,33.8,12.2,41,30.34,10.0,WSW,3.5,-,N/A,,Clear,240,2012-12-21 12:35:00
6:55 AM,32.0,14.0,48,30.34,10.0,SSW,3.5,-,N/A,,Clear,200,2012-12-21 12:55:00
7:15 AM,32.0,14.0,48,30.35,10.0,Calm,Calm,-,N/A,,Clear,0,2012-12-21 13:15:00
7:35 AM,30.2,15.8,55,30.35,10.0,Calm,Calm,-,N/A,,Clear,0,2012-12-21 13:35:00
7:55 AM,32.0,17.6,55,30.36,10.0,Calm,Calm,-,N/A,,Clear,0,2012-12-21 13:55:00
8:15 AM,32.0,19.4,60,30.37,10.0,Calm,Calm,-,N/A,,Clear,0,2012-12-21 14:15:00
8:35 AM,35.6,23.0,60,30.37,10.0,Calm,Calm,-,N/A,,Clear,0,2012-12-21 14:35:00
8:55 AM,42.8,14.0,31,30.38,10.0,Calm,Calm,-,N/A,,Clear,0,2012-12-21 14:55:00
9:15 AM,44.6,14.0,29,30.38,10.0,Calm,Calm,-,N/A,,Clear,0,2012-12-21 15:15:00
9:35 AM,46.4,12.2,25,30.39,10.0,WSW,8.1,-,N/A,,Clear,250,2012-12-21 15:35:00
9:55 AM,46.4,12.2,25,30.39,10.0,WNW,6.9,-,N/A,,Clear,290,2012-12-21 15:55:00
10:15 AM,48.2,12.2,24,30.40,10.0,WNW,5.8,-,N/A,,Clear,290,2012-12-21 16:15:00
10:35 AM,50.0,12.2,22,30.40,10.0,West,8.1,-,N/A,,Clear,280,2012-12-21 16:35:00
10:55 AM,51.8,12.2,21,30.40,10.0,West,9.2,-,N/A,,Clear,260,2012-12-21 16:55:00
11:15 AM,51.8,14.0,22,30.39,10.0,West,8.1,-,N/A,,Clear,280,2012-12-21 17:15:00
11:35 AM,53.6,14.0,21,30.38,10.0,West,9.2,-,N/A,,Clear,280,2012-12-21 17:35:00
11:55 AM,53.6,14.0,21,30.37,10.0,West,9.2,-,N/A,,Clear,280,2012-12-21 17:55:00
12:15 PM,55.4,14.0,20,30.35,10.0,NW,5.8,-,N/A,,Clear,310,2012-12-21 18:15:00
12:35 PM,55.4,14.0,20,30.35,10.0,WNW,6.9,-,N/A,,Clear,290,2012-12-21 18:35:00
12:55 PM,57.2,15.8,20,30.34,10.0,WNW,8.1,-,N/A,,Clear,290,2012-12-21 18:55:00
1:15 PM,59.0,15.8,19,30.33,10.0,West,5.8,-,N/A,,Clear,260,2012-12-21 19:15:00
1:35 PM,59.0,14.0,17,30.32,10.0,SW,4.6,-,N/A,,Clear,220,2012-12-21 19:35:00
1:55 PM,59.0,14.0,17,30.32,10.0,WSW,3.5,-,N/A,,Clear,240,2012-12-21 19:55:00
2:15 PM,60.8,14.0,16,30.31,10.0,Calm,Calm,-,N/A,,Clear,0,2012-12-21 20:15:00
2:35 PM,60.8,14.0,16,30.30,10.0,West,6.9,-,N/A,,Clear,270,2012-12-21 20:35:00
2:55 PM,60.8,12.2,15,30.30,10.0,Calm,Calm,-,N/A,,Clear,0,2012-12-21 20:55:00
3:15 PM,60.8,10.4,14,30.30,10.0,SW,5.8,-,N/A,,Clear,220,2012-12-21 21:15:00
3:35 PM,60.8,12.2,15,30.29,10.0,SW,4.6,-,N/A,,Clear,230,2012-12-21 21:35:00
4:15 PM,60.8,10.4,14,30.28,10.0,Calm,Calm,-,N/A,,Clear,0,2012-12-21 22:15:00
4:35 PM,59.0,10.4,15,30.28,10.0,SSW,3.5,-,N/A,,Clear,210,2012-12-21 22:35:00
4:55 PM,57.2,10.4,16,30.28,10.0,Calm,Calm,-,N/A,,Clear,0,2012-12-21 22:55:00
5:15 PM,55.4,12.2,18,30.27,10.0,Calm,Calm,-,N/A,,Clear,0,2012-12-21 23:15:00
5:35 PM,51.8,12.2,21,30.27,10.0,Calm,Calm,-,N/A,,Clear,0,2012-12-21 23:35:00
5:55 PM,46.4,17.6,32,30.28,10.0,Calm,Calm,-,N/A,,Clear,0,2012-12-21 23:55:00
6:15 PM,41.0,21.2,45,30.28,10.0,Calm,Calm,-,N/A,,Clear,0,2012-12-22 00:15:00
6:35 PM,39.2,21.2,49,30.29,10.0,Calm,Calm,-,N/A,,Clear,0,2012-12-22 00:35:00
6:55 PM,50.0,17.6,28,30.30,10.0,Calm,Calm,-,N/A,,Clear,0,2012-12-22 00:55:00
7:15 PM,44.6,17.6,34,30.31,10.0,Calm,Calm,-,N/A,,Clear,0,2012-12-22 01:15:00
7:35 PM,50.0,15.8,26,30.31,10.0,Calm,Calm,-,N/A,,Clear,0,2012-12-22 01:35:00
7:55 PM,50.0,14.0,24,30.31,10.0,Calm,Calm,-,N/A,,Clear,0,2012-12-22 01:55:00
8:15 PM,42.8,17.6,36,30.31,10.0,Calm,Calm,-,N/A,,Clear,0,2012-12-22 02:15:00
8:35 PM,37.4,23.0,56,30.31,10.0,Calm,Calm,-,N/A,,Clear,0,2012-12-22 02:35:00
8:55 PM,37.4,21.2,52,30.31,10.0,Calm,Calm,-,N/A,,Clear,0,2012-12-22 02:55:00
9:15 PM,37.4,23.0,56,30.31,10.0,Calm,Calm,-,N/A,,Clear,0,2012-12-22 03:15:00
9:35 PM,35.6,23.0,60,30.30,10.0,Calm,Calm,-,N/A,,Clear,0,2012-12-22 03:35:00
9:55 PM,35.6,26.6,70,30.30,10.0,Calm,Calm,-,N/A,,Clear,0,2012-12-22 03:55:00
10:15 PM,35.6,23.0,60,30.31,10.0,Calm,Calm,-,N/A,,Clear,0,2012-12-22 04:15:00
10:35 PM,33.8,23.0,65,30.31,10.0,Calm,Calm,-,N/A,,Clear,0,2012-12-22 04:35:00
10:55 PM,33.8,26.6,75,30.31,10.0,Calm,Calm,-,N/A,,Clear,0,2012-12-22 04:55:00
11:15 PM,33.8,24.8,70,30.31,10.0,Calm,Calm,-,N/A,,Clear,0,2012-12-22 05:15:00
11:35 PM,33.8,24.8,70,30.31,10.0,Calm,Calm,-,N/A,,Clear,0,2012-12-22 05:35:00
11:55 PM,33.8,26.6,75,30.31,10.0,Calm,Calm,-,N/A,,Clear,0,2012-12-22 05:55:00